St Solene — FVDG — position and weather

sailwx.info

Track history (hours):
 
Tides and Currents Weather Stations Pressure Air Temp Water Temp Dewpoint Dewpoint Depression Visibility Wind Speed Wind Dir Waves Ship Positions

St Solene

Last reported at 2014-Sep-17 16:33 UTC. Time now 2014-Sep-17 17:36 UTC.
Position N 43°24' E 004°57'.

Length 104 m; draft 5.3 m.

Type: Tanker. MMSI: 226302000.

Date/timePositionNaut miles runAvg speedWind from/ knotsBaromVisibWave heightAir tempDewpointWater temp
2014-Sep-17 16:33N 43°24' E 004°57'0 0.0
2014-Sep-17 15:33N 43°24' E 004°57'0 0.0
2014-Sep-17 14:33N 43°24' E 004°57'0 0.0
2014-Sep-17 13:33N 43°24' E 004°57'0 0.0
2014-Sep-17 12:33N 43°24' E 004°57'0 0.0
2014-Sep-17 11:33N 43°24' E 004°57'0 0.0
2014-Sep-17 10:33N 43°24' E 004°57'0 0.0
2014-Sep-17 09:33N 43°24' E 004°57'0 0.0
2014-Sep-17 08:33N 43°24' E 004°57'0 0.0
2014-Sep-17 07:33N 43°24' E 004°57'0 0.0
2014-Sep-17 06:34N 43°24' E 004°57'0 0.0
2014-Sep-17 05:33N 43°24' E 004°57'0 0.0
2014-Sep-17 04:33N 43°24' E 004°57'0 0.0
2014-Sep-17 03:33N 43°24' E 004°57'0 0.0
2014-Sep-17 02:33N 43°24' E 004°57'0 0.0
2014-Sep-17 01:33N 43°24' E 004°57'0 0.0
2014-Sep-17 00:33N 43°24' E 004°57'0 0.0
2014-Sep-16 23:33N 43°24' E 004°57'0 0.0
2014-Sep-16 22:33N 43°24' E 004°57'0 0.0
2014-Sep-16 21:33N 43°24' E 004°57'0 0.0
2014-Sep-16 20:33N 43°24' E 004°57'0 0.0
2014-Sep-16 19:33N 43°24' E 004°57'0 0.0
2014-Sep-16 18:33N 43°24' E 004°57'0 0.0
2014-Sep-16 17:33N 43°24' E 004°57'0 0.0
2014-Sep-16 16:33N 43°24' E 004°57'0 0.0
2014-Sep-16 15:33N 43°24' E 004°57'5 5.2
2014-Sep-16 14:33N 43°20' E 004°59'1212.3
2014-Sep-16 13:33N 43°10' E 005°10'2913.9
2014-Sep-16 11:28N 43°02' E 005°48'1213.5
2014-Sep-16 10:33N 42°58' E 006°04'1414.1
2014-Sep-16 09:33N 42°57' E 006°23'1414.1
2014-Sep-16 08:33N 42°57' E 006°42'1413.8
2014-Sep-16 07:33N 42°59' E 007°01'1413.5
2014-Sep-16 06:31N 42°60' E 007°20'9113.1
2014-Sep-15 23:33N 43°07' E 009°25'4 0.1
2014-Sep-14 15:05N 43°10' E 009°25'10212.9
2014-Sep-14 07:11N 42°56' E 007°07'812.5
2014-Sep-14 06:33N 42°55' E 006°56'1212.3
2014-Sep-14 05:33N 42°53' E 006°40'1212.0
2014-Sep-14 04:33N 42°52' E 006°23'1211.8
2014-Sep-14 03:33N 42°50' E 006°08'1212.2
2014-Sep-14 02:33N 42°48' E 005°51'1111.4
2014-Sep-14 01:33N 42°53' E 005°37'4511.3
2014-Sep-13 21:33N 43°26' E 004°54'0 0.1
2014-Sep-13 20:31N 43°26' E 004°54'0 0.0
2014-Sep-13 19:31N 43°26' E 004°54'0 0.0
2014-Sep-13 18:31N 43°26' E 004°54'0 0.0
2014-Sep-13 17:31N 43°26' E 004°54'0 0.0
2014-Sep-13 16:31N 43°26' E 004°54'0 0.0
2014-Sep-13 15:31N 43°26' E 004°54'0 0.0
2014-Sep-13 14:31N 43°26' E 004°54'0 0.0
2014-Sep-13 13:31N 43°26' E 004°54'0 0.0
2014-Sep-13 12:31N 43°26' E 004°54'0 0.0
2014-Sep-13 11:31N 43°26' E 004°54'0 0.0
2014-Sep-13 10:31N 43°26' E 004°54'0 0.0
2014-Sep-13 09:31N 43°26' E 004°54'0 0.3
2014-Sep-13 08:33N 43°25' E 004°53'5 4.6
2014-Sep-13 07:31N 43°24' E 004°60'0 0.0
2014-Sep-13 06:31N 43°24' E 004°60'0 0.0
2014-Sep-13 05:31N 43°24' E 004°60'0 0.0
2014-Sep-13 04:31N 43°24' E 004°60'0 0.0
2014-Sep-13 03:34N 43°24' E 004°60'0 0.0
2014-Sep-13 02:31N 43°24' E 004°60'0 0.0
2014-Sep-13 01:31N 43°24' E 004°60'0 0.0
2014-Sep-13 00:31N 43°24' E 004°60'0 0.0
2014-Sep-12 23:31N 43°24' E 004°60'0 0.0
2014-Sep-12 22:34N 43°24' E 004°60'0 0.0
2014-Sep-12 21:31N 43°24' E 004°60'0 0.0
2014-Sep-12 20:31N 43°24' E 004°60'0 0.0
2014-Sep-12 19:31N 43°24' E 004°60'0 0.0
2014-Sep-12 18:31N 43°24' E 004°60'0 0.0
2014-Sep-12 17:31N 43°24' E 004°60'0 0.0
2014-Sep-12 16:31N 43°24' E 004°60'3 2.7
2014-Sep-12 15:33N 43°24' E 004°56'0 0.2
2014-Sep-12 14:19N 43°24' E 004°56'0 0.0
2014-Sep-12 13:31N 43°24' E 004°56'0 0.0
2014-Sep-12 12:31N 43°24' E 004°56'0 0.0
2014-Sep-12 11:31N 43°24' E 004°56'0 0.0
2014-Sep-12 10:31N 43°24' E 004°56'0 0.0
2014-Sep-12 09:31N 43°24' E 004°56'0 0.0
2014-Sep-12 08:31N 43°24' E 004°56'0 0.0
2014-Sep-12 07:31N 43°24' E 004°56'0 0.0
2014-Sep-12 06:31N 43°24' E 004°56'0 0.0
2014-Sep-12 05:31N 43°24' E 004°56'0 0.0
2014-Sep-12 04:31N 43°24' E 004°56'0 0.0
2014-Sep-12 03:31N 43°24' E 004°56'0 0.0
2014-Sep-12 02:31N 43°24' E 004°56'0 0.0
2014-Sep-12 01:31N 43°24' E 004°56'0 0.0
2014-Sep-12 00:31N 43°24' E 004°56'0 0.0
2014-Sep-11 23:31N 43°24' E 004°56'0 0.0
2014-Sep-11 22:31N 43°24' E 004°56'0 0.0
2014-Sep-11 21:31N 43°24' E 004°56'0 0.0
2014-Sep-11 20:28N 43°24' E 004°56'0 0.0
2014-Sep-11 19:31N 43°24' E 004°56'0 0.0
2014-Sep-11 18:31N 43°24' E 004°56'0 0.0
2014-Sep-11 17:31N 43°24' E 004°56'0 0.0
2014-Sep-11 16:31N 43°24' E 004°56'0 0.0
2014-Sep-11 15:31N 43°24' E 004°56'0 0.0
2014-Sep-11 14:31N 43°24' E 004°56'0 0.0
2014-Sep-11 13:31N 43°24' E 004°56'0 0.0
2014-Sep-11 12:31N 43°24' E 004°56'0 0.0
2014-Sep-11 11:31N 43°24' E 004°56'0 0.0
2014-Sep-11 10:31N 43°24' E 004°56'0 0.0
2014-Sep-11 09:34N 43°24' E 004°56'0 0.0
2014-Sep-11 08:33N 43°24' E 004°56'0 0.0
2014-Sep-11 07:34N 43°24' E 004°56'0 0.0
2014-Sep-11 06:33N 43°24' E 004°56'0 0.0
2014-Sep-11 05:34N 43°24' E 004°56'0 0.0
2014-Sep-11 04:34N 43°24' E 004°56'0 0.0
2014-Sep-11 03:34N 43°24' E 004°56'0 0.0
2014-Sep-11 02:34N 43°24' E 004°56'0 0.0
2014-Sep-11 01:34N 43°24' E 004°56'0 0.0
2014-Sep-11 00:34N 43°24' E 004°56'0 0.0
2014-Sep-10 23:34N 43°24' E 004°56'0 0.0
2014-Sep-10 22:33N 43°24' E 004°56'0 0.0
2014-Sep-10 21:33N 43°24' E 004°56'0 0.0
2014-Sep-10 20:33N 43°24' E 004°56'0 0.0
2014-Sep-10 19:33N 43°24' E 004°56'0 0.0
2014-Sep-10 18:33N 43°24' E 004°56'0 0.0
2014-Sep-10 17:34N 43°24' E 004°56'0 0.0
2014-Sep-10 16:34N 43°24' E 004°56'0 0.2
2014-Sep-10 15:34N 43°24' E 004°56'1111.2
2014-Sep-10 14:33N 43°14' E 005°02'1111.0
2014-Sep-10 13:33N 43°09' E 005°15'2411.6
2014-Sep-10 11:30N 43°02' E 005°46'1212.1
2014-Sep-10 10:31N 42°58' E 006°02'1414.0
2014-Sep-10 09:32N 42°54' E 006°20'1110.9
2014-Sep-10 08:33N 42°57' E 006°34'1313.1
2014-Sep-10 07:34N 42°58' E 006°52'1313.1
2014-Sep-10 06:34N 42°59' E 007°09'97 2.1
2014-Sep-08 07:26N 43°10' E 009°22'9912.6
2014-Sep-07 23:31N 42°56' E 007°07'1212.3
2014-Sep-07 22:34N 42°55' E 006°51'1311.7
2014-Sep-07 21:30N 42°53' E 006°34'1111.7
2014-Sep-07 20:33N 42°52' E 006°19'1211.7
2014-Sep-07 19:33N 42°50' E 006°03'1111.6
2014-Sep-07 18:34N 42°49' E 005°48'1211.5
2014-Sep-07 17:34N 42°55' E 005°35'  
Track history (hours):
 
Tides and Currents Weather Stations Pressure Air Temp Water Temp Dewpoint Dewpoint Depression Visibility Wind Speed Wind Dir Waves Ship Positions

St Solene

Last reported at 2014-Sep-17 16:33 UTC. Time now 2014-Sep-17 17:36 UTC.
Position N 43°24' E 004°57'.

Length 104 m; draft 5.3 m.

Type: Tanker. MMSI: 226302000.

Date/timePositionNaut miles runAvg speedWind from/ knotsBaromVisibWave heightAir tempDewpointWater temp
2014-Sep-17 16:33N 43°24' E 004°57'0 0.0
2014-Sep-17 15:33N 43°24' E 004°57'0 0.0
2014-Sep-17 14:33N 43°24' E 004°57'0 0.0
2014-Sep-17 13:33N 43°24' E 004°57'0 0.0
2014-Sep-17 12:33N 43°24' E 004°57'0 0.0
2014-Sep-17 11:33N 43°24' E 004°57'0 0.0
2014-Sep-17 10:33N 43°24' E 004°57'0 0.0
2014-Sep-17 09:33N 43°24' E 004°57'0 0.0
2014-Sep-17 08:33N 43°24' E 004°57'0 0.0
2014-Sep-17 07:33N 43°24' E 004°57'0 0.0
2014-Sep-17 06:34N 43°24' E 004°57'0 0.0
2014-Sep-17 05:33N 43°24' E 004°57'0 0.0
2014-Sep-17 04:33N 43°24' E 004°57'0 0.0
2014-Sep-17 03:33N 43°24' E 004°57'0 0.0
2014-Sep-17 02:33N 43°24' E 004°57'0 0.0
2014-Sep-17 01:33N 43°24' E 004°57'0 0.0
2014-Sep-17 00:33N 43°24' E 004°57'0 0.0
2014-Sep-16 23:33N 43°24' E 004°57'0 0.0
2014-Sep-16 22:33N 43°24' E 004°57'0 0.0
2014-Sep-16 21:33N 43°24' E 004°57'0 0.0
2014-Sep-16 20:33N 43°24' E 004°57'0 0.0
2014-Sep-16 19:33N 43°24' E 004°57'0 0.0
2014-Sep-16 18:33N 43°24' E 004°57'0 0.0
2014-Sep-16 17:33N 43°24' E 004°57'0 0.0
2014-Sep-16 16:33N 43°24' E 004°57'0 0.0
2014-Sep-16 15:33N 43°24' E 004°57'5 5.2
2014-Sep-16 14:33N 43°20' E 004°59'1212.3
2014-Sep-16 13:33N 43°10' E 005°10'2913.9
2014-Sep-16 11:28N 43°02' E 005°48'1213.5
2014-Sep-16 10:33N 42°58' E 006°04'1414.1
2014-Sep-16 09:33N 42°57' E 006°23'1414.1
2014-Sep-16 08:33N 42°57' E 006°42'1413.8
2014-Sep-16 07:33N 42°59' E 007°01'1413.5
2014-Sep-16 06:31N 42°60' E 007°20'9113.1
2014-Sep-15 23:33N 43°07' E 009°25'4 0.1
2014-Sep-14 15:05N 43°10' E 009°25'10212.9
2014-Sep-14 07:11N 42°56' E 007°07'812.5
2014-Sep-14 06:33N 42°55' E 006°56'1212.3
2014-Sep-14 05:33N 42°53' E 006°40'1212.0
2014-Sep-14 04:33N 42°52' E 006°23'1211.8
2014-Sep-14 03:33N 42°50' E 006°08'1212.2
2014-Sep-14 02:33N 42°48' E 005°51'1111.4
2014-Sep-14 01:33N 42°53' E 005°37'4511.3
2014-Sep-13 21:33N 43°26' E 004°54'0 0.1
2014-Sep-13 20:31N 43°26' E 004°54'0 0.0
2014-Sep-13 19:31N 43°26' E 004°54'0 0.0
2014-Sep-13 18:31N 43°26' E 004°54'0 0.0
2014-Sep-13 17:31N 43°26' E 004°54'0 0.0
2014-Sep-13 16:31N 43°26' E 004°54'0 0.0
2014-Sep-13 15:31N 43°26' E 004°54'0 0.0
2014-Sep-13 14:31N 43°26' E 004°54'0 0.0
2014-Sep-13 13:31N 43°26' E 004°54'0 0.0
2014-Sep-13 12:31N 43°26' E 004°54'0 0.0
2014-Sep-13 11:31N 43°26' E 004°54'0 0.0
2014-Sep-13 10:31N 43°26' E 004°54'0 0.0
2014-Sep-13 09:31N 43°26' E 004°54'0 0.3
2014-Sep-13 08:33N 43°25' E 004°53'5 4.6
2014-Sep-13 07:31N 43°24' E 004°60'0 0.0
2014-Sep-13 06:31N 43°24' E 004°60'0 0.0
2014-Sep-13 05:31N 43°24' E 004°60'0 0.0
2014-Sep-13 04:31N 43°24' E 004°60'0 0.0
2014-Sep-13 03:34N 43°24' E 004°60'0 0.0
2014-Sep-13 02:31N 43°24' E 004°60'0 0.0
2014-Sep-13 01:31N 43°24' E 004°60'0 0.0
2014-Sep-13 00:31N 43°24' E 004°60'0 0.0
2014-Sep-12 23:31N 43°24' E 004°60'0 0.0
2014-Sep-12 22:34N 43°24' E 004°60'0 0.0
2014-Sep-12 21:31N 43°24' E 004°60'0 0.0
2014-Sep-12 20:31N 43°24' E 004°60'0 0.0
2014-Sep-12 19:31N 43°24' E 004°60'0 0.0
2014-Sep-12 18:31N 43°24' E 004°60'0 0.0
2014-Sep-12 17:31N 43°24' E 004°60'0 0.0
2014-Sep-12 16:31N 43°24' E 004°60'3 2.7
2014-Sep-12 15:33N 43°24' E 004°56'0 0.2
2014-Sep-12 14:19N 43°24' E 004°56'0 0.0
2014-Sep-12 13:31N 43°24' E 004°56'0 0.0
2014-Sep-12 12:31N 43°24' E 004°56'0 0.0
2014-Sep-12 11:31N 43°24' E 004°56'0 0.0
2014-Sep-12 10:31N 43°24' E 004°56'0 0.0
2014-Sep-12 09:31N 43°24' E 004°56'0 0.0
2014-Sep-12 08:31N 43°24' E 004°56'0 0.0
2014-Sep-12 07:31N 43°24' E 004°56'0 0.0
2014-Sep-12 06:31N 43°24' E 004°56'0 0.0
2014-Sep-12 05:31N 43°24' E 004°56'0 0.0
2014-Sep-12 04:31N 43°24' E 004°56'0 0.0
2014-Sep-12 03:31N 43°24' E 004°56'0 0.0
2014-Sep-12 02:31N 43°24' E 004°56'0 0.0
2014-Sep-12 01:31N 43°24' E 004°56'0 0.0
2014-Sep-12 00:31N 43°24' E 004°56'0 0.0
2014-Sep-11 23:31N 43°24' E 004°56'0 0.0
2014-Sep-11 22:31N 43°24' E 004°56'0 0.0
2014-Sep-11 21:31N 43°24' E 004°56'0 0.0
2014-Sep-11 20:28N 43°24' E 004°56'0 0.0
2014-Sep-11 19:31N 43°24' E 004°56'0 0.0
2014-Sep-11 18:31N 43°24' E 004°56'0 0.0
2014-Sep-11 17:31N 43°24' E 004°56'0 0.0
2014-Sep-11 16:31N 43°24' E 004°56'0 0.0
2014-Sep-11 15:31N 43°24' E 004°56'0 0.0
2014-Sep-11 14:31N 43°24' E 004°56'0 0.0
2014-Sep-11 13:31N 43°24' E 004°56'0 0.0
2014-Sep-11 12:31N 43°24' E 004°56'0 0.0
2014-Sep-11 11:31N 43°24' E 004°56'0 0.0
2014-Sep-11 10:31N 43°24' E 004°56'0 0.0
2014-Sep-11 09:34N 43°24' E 004°56'0 0.0
2014-Sep-11 08:33N 43°24' E 004°56'0 0.0
2014-Sep-11 07:34N 43°24' E 004°56'0 0.0
2014-Sep-11 06:33N 43°24' E 004°56'0 0.0
2014-Sep-11 05:34N 43°24' E 004°56'0 0.0
2014-Sep-11 04:34N 43°24' E 004°56'0 0.0
2014-Sep-11 03:34N 43°24' E 004°56'0 0.0
2014-Sep-11 02:34N 43°24' E 004°56'0 0.0
2014-Sep-11 01:34N 43°24' E 004°56'0 0.0
2014-Sep-11 00:34N 43°24' E 004°56'0 0.0
2014-Sep-10 23:34N 43°24' E 004°56'0 0.0
2014-Sep-10 22:33N 43°24' E 004°56'0 0.0
2014-Sep-10 21:33N 43°24' E 004°56'0 0.0
2014-Sep-10 20:33N 43°24' E 004°56'0 0.0
2014-Sep-10 19:33N 43°24' E 004°56'0 0.0
2014-Sep-10 18:33N 43°24' E 004°56'0 0.0
2014-Sep-10 17:34N 43°24' E 004°56'0 0.0
2014-Sep-10 16:34N 43°24' E 004°56'0 0.2
2014-Sep-10 15:34N 43°24' E 004°56'1111.2
2014-Sep-10 14:33N 43°14' E 005°02'1111.0
2014-Sep-10 13:33N 43°09' E 005°15'2411.6
2014-Sep-10 11:30N 43°02' E 005°46'1212.1
2014-Sep-10 10:31N 42°58' E 006°02'1414.0
2014-Sep-10 09:32N 42°54' E 006°20'1110.9
2014-Sep-10 08:33N 42°57' E 006°34'1313.1
2014-Sep-10 07:34N 42°58' E 006°52'1313.1
2014-Sep-10 06:34N 42°59' E 007°09'97 2.1
2014-Sep-08 07:26N 43°10' E 009°22'9912.6
2014-Sep-07 23:31N 42°56' E 007°07'1212.3
2014-Sep-07 22:34N 42°55' E 006°51'1311.7
2014-Sep-07 21:30N 42°53' E 006°34'1111.7
2014-Sep-07 20:33N 42°52' E 006°19'1211.7
2014-Sep-07 19:33N 42°50' E 006°03'1111.6
2014-Sep-07 18:34N 42°49' E 005°48'1211.5
2014-Sep-07 17:34N 42°55' E 005°35'  

Dump ship's entire track history